createdAt,value
2018-04-11T00:00:38.281Z,6.33
2018-04-11T00:03:05.867Z,5.27
2018-04-11T00:05:32.217Z,5.53
2018-04-11T00:07:58.415Z,5.80
2018-04-11T00:10:24.642Z,5.50
2018-04-11T00:12:50.898Z,5.33
2018-04-11T00:15:17.076Z,5.00
2018-04-11T00:17:44.010Z,5.83
2018-04-11T00:20:10.181Z,5.00
2018-04-11T00:22:36.348Z,5.20
2018-04-11T00:25:02.567Z,5.40
2018-04-11T00:27:28.733Z,4.87
2018-04-11T00:29:55.665Z,3.53
2018-04-11T00:32:24.871Z,3.73
2018-04-11T00:35:06.785Z,3.63
2018-04-11T00:37:33.671Z,4.13
2018-04-11T00:39:59.879Z,4.03
2018-04-11T00:42:26.649Z,3.77
2018-04-11T00:44:52.877Z,3.93
2018-04-11T00:47:19.128Z,4.30
2018-04-11T00:49:46.089Z,4.00
2018-04-11T00:52:13.008Z,5.00
2018-04-11T00:54:39.268Z,4.90
2018-04-11T00:57:06.196Z,5.10
2018-04-11T00:59:32.376Z,4.47
2018-04-11T01:01:58.715Z,4.70
2018-04-11T01:04:25.414Z,5.33
2018-04-11T01:06:52.380Z,4.27
2018-04-11T01:09:18.553Z,4.73
2018-04-11T01:11:44.765Z,5.43
2018-04-11T01:14:10.994Z,5.90
2018-04-11T01:16:37.216Z,5.60
2018-04-11T01:19:03.405Z,6.10
2018-04-11T01:21:30.008Z,5.90
2018-04-11T01:23:56.185Z,5.53
2018-04-11T01:26:22.427Z,5.90
2018-04-11T01:28:48.626Z,4.93
2018-04-11T01:31:15.584Z,5.20
2018-04-11T01:33:41.802Z,5.77
2018-04-11T01:36:08.056Z,6.23
2018-04-11T01:38:34.325Z,6.60
2018-04-11T01:41:00.684Z,6.43
2018-04-11T01:43:27.629Z,6.30
2018-04-11T01:45:54.586Z,6.90
2018-04-11T01:48:21.566Z,6.30
2018-04-11T01:50:47.757Z,6.80
2018-04-11T01:53:14.833Z,6.40
2018-04-11T01:55:41.090Z,6.67
2018-04-11T01:58:07.299Z,5.37
2018-04-11T02:00:33.501Z,6.80
2018-04-11T02:02:59.718Z,6.73
2018-04-11T02:05:27.470Z,5.33
2018-04-11T02:07:54.451Z,5.67
2018-04-11T02:10:21.261Z,6.20
2018-04-11T02:12:47.451Z,6.00
2018-04-11T02:15:13.817Z,5.77
2018-04-11T02:17:40.034Z,6.07
2018-04-11T02:20:06.229Z,5.43
2018-04-11T02:22:32.377Z,6.67
2018-04-11T02:24:58.665Z,5.03
2018-04-11T02:27:24.828Z,6.00
2018-04-11T02:29:51.210Z,5.47
2018-04-11T02:32:18.137Z,6.40
2018-04-11T02:34:44.344Z,7.40
2018-04-11T02:37:10.504Z,6.80
2018-04-11T02:39:37.487Z,7.67
2018-04-11T02:42:03.725Z,6.53
2018-04-11T02:44:30.001Z,6.17
2018-04-11T02:46:56.198Z,6.23
2018-04-11T02:49:23.173Z,6.93
2018-04-11T02:51:49.368Z,6.43
2018-04-11T02:54:16.260Z,7.07
2018-04-11T02:56:42.479Z,6.80
2018-04-11T02:59:08.705Z,8.70
2018-04-11T03:06:19.326Z,7.53
2018-04-11T03:08:46.230Z,6.70
2018-04-11T03:11:12.477Z,6.70
2018-04-11T03:13:38.708Z,7.40
2018-04-11T03:16:04.905Z,7.53
2018-04-11T03:18:31.089Z,6.27
2018-04-11T03:20:57.989Z,7.03
2018-04-11T03:23:24.178Z,7.00
2018-04-11T03:25:50.357Z,7.43
2018-04-11T03:28:16.615Z,6.63
2018-04-11T03:30:44.470Z,7.70
2018-04-11T03:33:11.420Z,7.50
2018-04-11T03:35:38.368Z,7.70
2018-04-11T03:38:05.310Z,9.27
2018-04-11T03:40:32.596Z,8.03
2018-04-11T03:42:58.824Z,8.13
2018-04-11T03:45:25.029Z,7.40
2018-04-11T03:47:51.979Z,7.83
2018-04-11T03:50:18.918Z,9.20
2018-04-11T03:52:45.878Z,9.00
2018-04-11T03:55:12.060Z,7.70
2018-04-11T03:57:38.237Z,9.03
2018-04-11T04:00:04.866Z,10.40
2018-04-11T04:02:32.391Z,9.43
2018-04-11T04:04:58.608Z,9.70
2018-04-11T04:07:24.837Z,10.27
2018-04-11T04:09:51.077Z,10.67
2018-04-11T04:12:17.277Z,10.03
2018-04-11T04:14:56.233Z,10.60
2018-04-11T04:17:34.736Z,11.30
2018-04-11T04:20:07.137Z,11.47
2018-04-11T04:22:34.212Z,10.80
2018-04-11T04:25:01.469Z,11.40
2018-04-11T04:27:27.662Z,11.23
2018-04-11T04:29:53.903Z,11.20
2018-04-11T04:32:20.930Z,13.17
2018-04-11T04:34:47.157Z,12.23
2018-04-11T04:37:13.385Z,14.40
2018-04-11T04:39:39.636Z,13.67
2018-04-11T04:42:06.677Z,13.23
2018-04-11T04:44:33.515Z,14.73
2018-04-11T04:46:59.705Z,13.60
2018-04-11T04:49:25.938Z,16.50
2018-04-11T04:51:52.216Z,17.33
2018-04-11T04:54:18.543Z,17.43
2018-04-11T04:56:44.747Z,16.83
2018-04-11T04:59:10.931Z,16.80
2018-04-11T05:01:37.317Z,16.60
2018-04-11T05:04:03.596Z,16.53
2018-04-11T05:06:30.220Z,19.47
2018-04-11T05:08:57.202Z,15.90
2018-04-11T05:11:23.419Z,16.57
2018-04-11T05:13:50.791Z,16.13
2018-04-11T05:16:17.062Z,18.87
2018-04-11T05:18:44.181Z,15.57
2018-04-11T05:21:10.438Z,16.83
2018-04-11T05:23:37.743Z,14.60
2018-04-11T05:26:04.569Z,15.87
2018-04-11T05:28:31.224Z,13.50
2018-04-11T05:30:57.422Z,13.30
2018-04-11T05:33:23.961Z,13.40
2018-04-11T05:35:50.915Z,10.60
2018-04-11T05:38:17.179Z,8.70
2018-04-11T05:40:43.415Z,10.77
2018-04-11T05:43:09.672Z,10.13
2018-04-11T05:45:35.915Z,11.67
2018-04-11T05:48:02.204Z,10.80
2018-04-11T05:50:28.725Z,11.23
2018-04-11T05:52:57.358Z,10.50
2018-04-11T05:55:23.915Z,10.43
2018-04-11T05:57:50.905Z,10.90
2018-04-11T06:00:17.212Z,12.73
2018-04-11T06:02:44.373Z,9.60
2018-04-11T06:05:12.007Z,10.20
2018-04-11T06:07:38.568Z,9.23
2018-04-11T06:10:04.772Z,10.67
2018-04-11T06:12:31.038Z,10.57
2018-04-11T06:14:57.300Z,10.70
2018-04-11T06:17:25.120Z,8.67
2018-04-11T06:19:52.365Z,8.70
2018-04-11T06:22:18.724Z,10.40
2018-04-11T06:24:45.874Z,9.90
2018-04-11T06:27:12.069Z,9.87
2018-04-11T06:29:39.511Z,9.27
2018-04-11T06:32:06.616Z,9.30
2018-04-11T06:34:33.169Z,9.60
2018-04-11T06:37:00.098Z,10.80
2018-04-11T06:39:26.392Z,10.73
2018-04-11T06:41:53.420Z,12.50
2018-04-11T06:44:20.380Z,9.90
2018-04-11T06:46:47.411Z,11.10
2018-04-11T06:49:14.405Z,12.30
2018-04-11T06:51:40.629Z,10.40
2018-04-11T06:54:07.389Z,11.37
2018-04-11T06:56:33.666Z,11.30
2018-04-11T06:59:01.845Z,11.87
2018-04-11T07:01:28.324Z,12.17
2018-04-11T07:03:57.748Z,12.00
2018-04-11T07:06:24.876Z,11.17
2018-04-11T07:08:52.541Z,11.57
2018-04-11T07:11:19.055Z,10.80
2018-04-11T07:13:45.333Z,12.73
2018-04-11T07:16:11.672Z,10.90
2018-04-11T07:18:37.995Z,12.60
2018-04-11T07:21:05.554Z,12.43
2018-04-11T07:23:31.951Z,11.83
2018-04-11T07:25:59.846Z,9.67
2018-04-11T07:28:26.174Z,8.63
2018-04-11T07:30:52.614Z,10.10
2018-04-11T07:33:19.037Z,12.17
2018-04-11T07:35:45.302Z,10.10
2018-04-11T07:38:11.730Z,10.50
2018-04-11T07:40:38.908Z,10.30
2018-04-11T07:43:05.765Z,11.13
2018-04-11T07:45:34.525Z,12.43
2018-04-11T07:48:01.558Z,12.23
2018-04-11T07:50:27.827Z,9.90
2018-04-11T07:52:54.528Z,10.97
2018-04-11T07:55:20.892Z,10.40
2018-04-11T07:57:47.062Z,11.60
2018-04-11T08:00:13.360Z,10.70
2018-04-11T08:02:40.696Z,11.10
2018-04-11T08:05:08.461Z,10.80
2018-04-11T08:07:36.118Z,10.23
2018-04-11T08:10:03.223Z,11.90
2018-04-11T08:12:29.709Z,11.10
2018-04-11T08:14:57.765Z,11.60
2018-04-11T08:17:24.732Z,9.20
2018-04-11T08:19:51.114Z,10.67
2018-04-11T08:22:17.897Z,14.60
2018-04-11T08:24:44.948Z,14.13
2018-04-11T08:27:12.075Z,11.90
2018-04-11T08:29:38.365Z,12.87
2018-04-11T08:32:04.730Z,11.93
2018-04-11T08:34:30.984Z,9.30
2018-04-11T08:36:58.009Z,11.53
2018-04-11T08:39:24.242Z,10.40
2018-04-11T08:41:50.592Z,11.17
2018-04-11T08:44:17.517Z,12.27
2018-04-11T08:46:43.737Z,11.47
2018-04-11T08:49:10.315Z,12.00
2018-04-11T08:51:37.156Z,11.97
2018-04-11T08:54:04.237Z,11.03
2018-04-11T08:56:31.064Z,12.63
2018-04-11T08:58:58.195Z,12.27
2018-04-11T09:01:25.146Z,12.00
2018-04-11T09:03:52.750Z,12.23
2018-04-11T09:06:19.486Z,11.30
2018-04-11T09:08:45.936Z,12.57
2018-04-11T09:11:13.017Z,13.63
2018-04-11T09:13:39.411Z,12.63
2018-04-11T09:16:05.821Z,13.90
2018-04-11T09:18:32.146Z,8.90
2018-04-11T09:21:00.012Z,11.80
2018-04-11T09:23:26.344Z,11.67
2018-04-11T09:25:52.645Z,11.40
2018-04-11T09:28:19.725Z,11.90
2018-04-11T09:30:46.041Z,11.70
2018-04-11T09:33:13.285Z,13.47
2018-04-11T09:35:40.441Z,12.33
2018-04-11T09:38:06.652Z,10.73
2018-04-11T09:40:32.872Z,12.23
2018-04-11T09:42:59.832Z,12.10
2018-04-11T09:45:26.748Z,11.80
2018-04-11T09:47:52.969Z,10.50
2018-04-11T09:50:19.241Z,11.30
2018-04-11T09:52:46.175Z,11.30
2018-04-11T09:55:12.426Z,12.07
2018-04-11T09:57:39.335Z,11.60
2018-04-11T10:00:06.350Z,12.63
2018-04-11T10:02:35.922Z,11.80
2018-04-11T10:05:03.586Z,11.60
2018-04-11T10:07:30.541Z,12.30
2018-04-11T10:09:56.738Z,13.00
2018-04-11T10:12:22.935Z,12.87
2018-04-11T10:14:49.172Z,14.20
2018-04-11T10:17:15.755Z,13.07
2018-04-11T10:19:42.696Z,11.80
2018-04-11T10:22:09.263Z,10.90
2018-04-11T10:24:35.536Z,13.10
2018-04-11T10:27:03.315Z,14.27
2018-04-11T10:29:29.879Z,12.40
2018-04-11T10:31:56.150Z,11.20
2018-04-11T10:34:22.403Z,12.10
2018-04-11T10:36:48.603Z,9.00
2018-04-11T10:39:16.148Z,9.67
2018-04-11T10:41:42.489Z,10.17
2018-04-11T10:44:09.253Z,9.37
2018-04-11T10:56:25.467Z,7.30
2018-04-11T10:58:51.701Z,6.90
2018-04-11T11:01:18.324Z,8.73
2018-04-11T11:03:44.911Z,7.17
2018-04-11T11:06:11.497Z,6.80
2018-04-11T11:08:39.120Z,8.00
2018-04-11T11:11:05.298Z,6.80
2018-04-11T11:13:31.533Z,7.83
2018-04-11T11:15:57.758Z,7.17
2018-04-11T11:18:24.059Z,6.10
2018-04-11T11:20:57.464Z,6.30
2018-04-11T11:23:24.412Z,6.67
2018-04-11T11:25:51.407Z,8.00
2018-04-11T11:28:17.685Z,8.00
2018-04-11T11:30:45.958Z,7.00
2018-04-11T11:33:14.515Z,6.40
2018-04-11T11:35:40.791Z,5.93
2018-04-11T11:38:08.343Z,6.30
2018-04-11T11:40:34.614Z,6.83
2018-04-11T11:43:01.426Z,5.47
2018-04-11T11:45:27.698Z,5.40
2018-04-11T11:57:41.038Z,5.13
2018-04-11T12:00:08.372Z,4.47
2018-04-11T12:02:35.150Z,4.40
2018-04-11T12:05:02.460Z,3.80
2018-04-11T12:07:28.643Z,4.00
2018-04-11T12:09:54.901Z,4.60
2018-04-11T12:12:22.181Z,4.37
2018-04-11T12:14:48.436Z,4.00
2018-04-11T12:17:15.455Z,3.07
2018-04-11T12:19:44.515Z,4.10
2018-04-11T12:22:11.214Z,2.67
2018-04-11T12:24:39.398Z,3.50
2018-04-11T12:27:06.325Z,2.70
2018-04-11T12:29:33.377Z,3.07
2018-04-11T12:32:00.243Z,6.40
2018-04-11T12:34:27.172Z,7.57
2018-04-11T12:36:54.225Z,7.53
2018-04-11T12:39:22.846Z,7.23
2018-04-11T12:41:51.080Z,6.83
2018-04-11T12:44:18.295Z,6.57
2018-04-11T12:46:44.546Z,6.30
2018-04-11T12:49:11.584Z,5.50
2018-04-11T12:51:37.786Z,6.90
2018-04-11T12:54:04.030Z,6.17
2018-04-11T12:56:31.225Z,5.50
2018-04-11T12:58:58.561Z,5.40
2018-04-11T13:01:28.320Z,5.80
2018-04-11T13:03:54.538Z,5.33
2018-04-11T13:06:21.880Z,5.70
2018-04-11T13:08:49.415Z,5.87
2018-04-11T13:11:17.932Z,5.77
2018-04-11T13:23:29.239Z,4.57
2018-04-11T13:25:56.453Z,6.40
2018-04-11T13:28:22.772Z,5.27
2018-04-11T13:30:52.899Z,4.67
2018-04-11T13:33:19.147Z,6.00
2018-04-11T13:35:48.648Z,6.27
2018-04-11T13:38:15.845Z,5.10
2018-04-11T13:40:43.094Z,5.57
2018-04-11T13:43:11.931Z,5.27
2018-04-11T13:45:38.247Z,5.57
2018-04-11T13:48:04.621Z,4.23
2018-04-11T13:50:31.205Z,6.07
2018-04-11T13:52:58.344Z,6.37
2018-04-11T14:05:12.790Z,3.37
2018-04-11T14:07:39.283Z,3.80
2018-04-11T14:10:05.545Z,4.33
2018-04-11T14:12:32.780Z,3.33
2018-04-11T14:15:00.859Z,2.80
2018-04-11T14:17:28.882Z,2.50
2018-04-11T14:19:56.410Z,3.13
2018-04-11T14:22:24.159Z,2.87
2018-04-11T14:24:53.040Z,3.10
2018-04-11T14:27:19.334Z,2.53
2018-04-11T14:29:47.973Z,2.10
2018-04-11T14:32:15.324Z,1.60
2018-04-11T14:34:43.029Z,1.50
2018-04-11T14:37:10.896Z,1.70
2018-04-11T14:39:37.171Z,1.50
2018-04-11T14:42:04.328Z,1.70
2018-04-11T14:44:32.161Z,1.80
2018-04-11T14:46:59.394Z,1.50
2018-04-11T14:49:27.002Z,1.10
2018-04-11T14:51:53.758Z,1.20
2018-04-11T14:54:20.894Z,1.00
2018-04-11T14:56:47.424Z,1.50
2018-04-11T14:59:14.492Z,1.20
2018-04-11T15:01:41.471Z,1.80
2018-04-11T15:04:07.732Z,1.40
2018-04-11T15:06:34.779Z,1.57
2018-04-11T15:09:01.926Z,1.87
2018-04-11T15:11:29.867Z,2.87
2018-04-11T15:13:57.193Z,2.60
2018-04-11T15:16:26.063Z,1.73
2018-04-11T15:18:54.057Z,1.93
2018-04-11T15:21:22.738Z,3.20
2018-04-11T15:23:49.681Z,2.20
2018-04-11T15:26:17.881Z,2.50
2018-04-11T15:28:45.053Z,1.70
2018-04-11T15:31:12.195Z,1.90
2018-04-11T15:33:38.433Z,2.23
2018-04-11T15:36:06.694Z,2.03
2018-04-11T15:38:33.770Z,2.10
2018-04-11T15:41:02.547Z,1.37
2018-04-11T15:43:29.532Z,1.97
2018-04-11T15:45:57.240Z,1.90
2018-04-11T15:48:24.467Z,1.80
2018-04-11T15:50:52.572Z,2.10
2018-04-11T15:53:19.516Z,1.80
2018-04-11T15:55:47.293Z,2.60
2018-04-11T15:58:14.345Z,1.77
2018-04-11T16:00:41.949Z,1.80
2018-04-11T16:03:09.941Z,1.90
2018-04-11T16:05:36.303Z,1.87
2018-04-11T16:08:03.437Z,1.90
2018-04-11T16:10:31.734Z,2.80
2018-04-11T16:12:58.933Z,1.73
2018-04-11T16:15:25.168Z,1.67
2018-04-11T16:17:52.524Z,2.33
2018-04-11T16:20:20.951Z,3.20
2018-04-11T16:22:47.201Z,2.53
2018-04-11T16:25:13.439Z,1.97
2018-04-11T16:27:39.671Z,2.87
2018-04-11T16:30:07.961Z,2.20
2018-04-11T16:32:34.943Z,2.40
2018-04-11T16:35:02.651Z,2.70
2018-04-11T16:37:30.557Z,2.40
2018-04-11T16:39:58.250Z,1.93
2018-04-11T16:42:25.381Z,2.33
2018-04-11T16:44:53.390Z,2.93
2018-04-11T16:47:23.084Z,2.27
2018-04-11T16:49:51.192Z,2.70
2018-04-11T16:52:17.467Z,2.80
2018-04-11T16:54:45.166Z,2.10
2018-04-11T16:57:11.366Z,2.63
2018-04-11T16:59:37.558Z,2.00
2018-04-11T17:02:03.898Z,3.47
2018-04-11T17:04:33.907Z,2.20
2018-04-11T17:07:00.094Z,1.97
2018-04-11T17:09:28.115Z,2.50
2018-04-11T17:11:55.780Z,1.53
2018-04-11T17:14:23.567Z,2.23
2018-04-11T17:16:50.863Z,1.73
2018-04-11T17:19:17.832Z,2.10
2018-04-11T17:21:56.451Z,2.30
2018-04-11T17:24:48.557Z,2.10
2018-04-11T17:27:27.028Z,1.60
2018-04-11T17:30:06.389Z,1.60
2018-04-11T17:32:33.247Z,1.60
2018-04-11T17:35:01.578Z,1.80
2018-04-11T17:37:28.599Z,2.00
2018-04-11T17:39:54.884Z,2.00
2018-04-11T17:42:21.790Z,1.83
2018-04-11T17:44:48.794Z,2.00
2018-04-11T17:47:16.647Z,1.60
2018-04-11T17:49:42.876Z,1.67
2018-04-11T18:02:01.037Z,2.13
2018-04-11T18:04:28.269Z,2.07
2018-04-11T18:06:54.897Z,2.40
2018-04-11T18:09:23.865Z,1.97
2018-04-11T18:11:51.000Z,2.40
2018-04-11T18:24:03.356Z,2.23
2018-04-11T18:26:30.360Z,1.67
2018-04-11T18:28:56.641Z,2.53
2018-04-11T18:31:23.362Z,2.43
2018-04-11T18:33:49.600Z,2.17
2018-04-11T18:36:17.430Z,2.23
2018-04-11T18:38:44.310Z,2.30
2018-04-11T18:41:11.002Z,2.47
2018-04-11T18:43:38.350Z,2.97
2018-04-11T18:46:04.693Z,1.97
2018-04-11T18:48:31.787Z,2.63
2018-04-11T18:50:59.341Z,2.30
2018-04-11T18:53:27.109Z,2.60
2018-04-11T18:55:53.880Z,2.80
2018-04-11T18:58:21.682Z,2.60
2018-04-11T19:00:47.945Z,2.50
2018-04-11T19:03:14.933Z,2.20
2018-04-11T19:05:41.609Z,2.60
2018-04-11T19:08:08.213Z,2.93
2018-04-11T19:10:35.244Z,2.73
2018-04-11T19:13:02.617Z,2.80
2018-04-11T19:15:30.179Z,2.90
2018-04-11T19:17:56.556Z,2.27
2018-04-11T19:20:24.060Z,2.47
2018-04-11T19:22:50.294Z,2.50
2018-04-11T19:25:17.522Z,2.80
2018-04-11T19:27:44.455Z,2.60
2018-04-11T19:30:11.161Z,2.53
2018-04-11T19:32:37.732Z,2.87
2018-04-11T19:35:04.338Z,2.90
2018-04-11T19:37:30.624Z,2.53
2018-04-11T19:39:57.229Z,2.80
2018-04-11T19:42:23.466Z,2.87
2018-04-11T19:44:50.119Z,2.90
2018-04-11T19:47:16.748Z,3.47
2018-04-11T19:49:43.047Z,2.43
2018-04-11T19:52:09.301Z,5.00
2018-04-11T19:54:35.492Z,2.77
2018-04-11T19:57:01.792Z,2.77
2018-04-11T19:59:28.409Z,2.80
2018-04-11T20:01:55.405Z,2.10
2018-04-11T20:04:22.069Z,2.40
2018-04-11T20:06:49.084Z,2.70
2018-04-11T20:09:16.385Z,2.50
2018-04-11T20:11:43.039Z,2.30
2018-04-11T20:14:10.018Z,2.07
2018-04-11T20:16:36.241Z,2.10
2018-04-11T20:19:02.521Z,2.40
2018-04-11T20:21:30.202Z,2.97
2018-04-11T20:23:56.899Z,2.77
2018-04-11T20:26:23.121Z,2.50
2018-04-11T20:28:49.399Z,3.07
2018-04-11T20:31:17.044Z,2.40
2018-04-11T20:33:44.292Z,2.53
2018-04-11T20:36:10.585Z,2.90
2018-04-11T20:38:36.851Z,2.80
2018-04-11T20:41:03.087Z,2.60
2018-04-11T20:43:29.706Z,2.00
2018-04-11T20:45:55.946Z,2.33
2018-04-11T20:48:22.263Z,2.67
2018-04-11T20:50:49.733Z,2.50
2018-04-11T20:53:16.329Z,1.90
2018-04-11T21:05:33.356Z,3.00
2018-04-11T21:07:59.595Z,3.43
2018-04-11T21:10:25.822Z,3.30
2018-04-11T21:12:52.782Z,2.23
2018-04-11T21:15:20.447Z,2.23
2018-04-11T21:17:47.626Z,2.80
2018-04-11T21:20:14.659Z,3.00
2018-04-11T21:22:41.596Z,2.13
2018-04-11T21:25:08.205Z,2.10
2018-04-11T21:27:35.398Z,1.70
2018-04-11T21:30:02.352Z,1.90
2018-04-11T21:32:28.598Z,2.60
2018-04-11T21:34:54.787Z,2.27
2018-04-11T21:37:21.040Z,2.20
2018-04-11T21:39:47.988Z,2.13
2018-04-11T21:42:14.944Z,2.07
2018-04-11T21:44:41.349Z,3.03
2018-04-11T21:47:08.301Z,1.83
2018-04-11T21:49:35.102Z,2.50
2018-04-11T21:52:01.299Z,2.60
2018-04-11T21:54:28.403Z,2.60
2018-04-11T21:56:54.641Z,2.20
2018-04-11T21:59:21.638Z,2.90
2018-04-11T22:01:47.825Z,1.87
2018-04-11T22:04:14.778Z,2.90
2018-04-11T22:06:41.413Z,2.30
2018-04-11T22:09:08.557Z,2.63
2018-04-11T22:11:35.515Z,2.20
2018-04-11T22:14:01.738Z,2.10
2018-04-11T22:16:29.658Z,2.10
2018-04-11T22:18:55.876Z,2.40
2018-04-11T22:21:22.470Z,1.93
2018-04-11T22:23:49.393Z,1.80
2018-04-11T22:26:15.583Z,2.37
2018-04-11T22:28:42.645Z,2.00
2018-04-11T22:31:08.850Z,1.90
2018-04-11T22:33:37.194Z,2.17
2018-04-11T22:36:04.753Z,2.20
2018-04-11T22:38:31.388Z,2.40
2018-04-11T22:40:58.349Z,2.30
2018-04-11T22:43:25.366Z,2.30
2018-04-11T22:45:51.554Z,2.10
2018-04-11T22:48:17.802Z,2.50
2018-04-11T22:50:44.062Z,2.17
2018-04-11T22:53:10.294Z,2.20
2018-04-11T22:55:36.485Z,2.50
2018-04-11T22:58:02.709Z,3.40
2018-04-11T23:00:30.607Z,2.80
2018-04-11T23:02:56.812Z,3.67
2018-04-11T23:05:23.002Z,3.03
2018-04-11T23:07:49.247Z,2.73
2018-04-11T23:10:15.854Z,3.53
2018-04-11T23:12:42.466Z,3.40
2018-04-11T23:15:09.321Z,4.03
2018-04-11T23:17:35.560Z,4.20
2018-04-11T23:20:02.201Z,3.33
2018-04-11T23:22:29.668Z,5.20
2018-04-11T23:24:57.581Z,5.47
2018-04-11T23:27:23.762Z,4.47
2018-04-11T23:29:50.707Z,5.00
2018-04-11T23:32:17.649Z,5.10
2018-04-11T23:34:44.596Z,5.43
2018-04-11T23:37:11.218Z,6.40
2018-04-11T23:39:37.423Z,6.47
2018-04-11T23:42:03.634Z,5.87
2018-04-11T23:44:30.608Z,8.30
2018-04-11T23:46:56.801Z,6.93
2018-04-11T23:49:23.023Z,6.50
2018-04-11T23:51:49.226Z,8.03
2018-04-11T23:54:15.793Z,7.20
2018-04-11T23:56:41.989Z,8.57
2018-04-11T23:59:09.020Z,8.10
